sensor_id;sensor_type;location;lat;lon;timestamp;pressure;altitude;pressure_sealevel;temperature;humidity
16355;BME280;8287;51.644;8.494;2023-02-18T00:00:27;100880.16;;;12.16;95.04
16355;BME280;8287;51.644;8.494;2023-02-18T00:02:54;100881.97;;;12.07;95.39
16355;BME280;8287;51.644;8.494;2023-02-18T00:05:22;100878.22;;;12.08;95.60
16355;BME280;8287;51.644;8.494;2023-02-18T00:07:48;100877.13;;;12.09;95.88
16355;BME280;8287;51.644;8.494;2023-02-18T00:10:16;100869.28;;;12.04;95.58
16355;BME280;8287;51.644;8.494;2023-02-18T00:12:43;100859.91;;;12.06;95.85
16355;BME280;8287;51.644;8.494;2023-02-18T00:15:10;100870.38;;;12.03;96.12
16355;BME280;8287;51.644;8.494;2023-02-18T00:17:38;100866.22;;;12.10;95.56
16355;BME280;8287;51.644;8.494;2023-02-18T00:20:06;100870.44;;;12.11;96.14
16355;BME280;8287;51.644;8.494;2023-02-18T00:22:33;100869.63;;;12.11;95.69
16355;BME280;8287;51.644;8.494;2023-02-18T00:25:00;100862.28;;;12.08;95.91
16355;BME280;8287;51.644;8.494;2023-02-18T00:27:26;100859.16;;;12.06;96.09
16355;BME280;8287;51.644;8.494;2023-02-18T00:29:53;100863.38;;;12.07;96.43
16355;BME280;8287;51.644;8.494;2023-02-18T00:32:20;100869.97;;;12.09;96.33
16355;BME280;8287;51.644;8.494;2023-02-18T00:34:48;100869.06;;;12.14;96.39
16355;BME280;8287;51.644;8.494;2023-02-18T00:37:15;100864.31;;;12.11;95.86
16355;BME280;8287;51.644;8.494;2023-02-18T00:39:42;100854.59;;;12.06;96.29
16355;BME280;8287;51.644;8.494;2023-02-18T00:42:09;100858.72;;;12.12;96.13
16355;BME280;8287;51.644;8.494;2023-02-18T00:44:36;100864.31;;;12.11;96.23
16355;BME280;8287;51.644;8.494;2023-02-18T00:47:03;100866.50;;;12.09;96.58
16355;BME280;8287;51.644;8.494;2023-02-18T00:49:30;100864.03;;;12.12;96.06
16355;BME280;8287;51.644;8.494;2023-02-18T00:51:58;100860.59;;;12.12;96.00
16355;BME280;8287;51.644;8.494;2023-02-18T00:54:25;100864.94;;;12.08;95.88
16355;BME280;8287;51.644;8.494;2023-02-18T00:56:52;100865.13;;;12.11;96.28
16355;BME280;8287;51.644;8.494;2023-02-18T00:59:19;100851.84;;;12.11;95.95
16355;BME280;8287;51.644;8.494;2023-02-18T01:01:46;100854.69;;;12.15;95.88
16355;BME280;8287;51.644;8.494;2023-02-18T01:04:13;100852.03;;;12.15;96.18
16355;BME280;8287;51.644;8.494;2023-02-18T01:06:40;100852.97;;;12.19;96.08
16355;BME280;8287;51.644;8.494;2023-02-18T01:09:08;100858.19;;;12.24;95.81
16355;BME280;8287;51.644;8.494;2023-02-18T01:11:35;100849.25;;;12.20;96.00
16355;BME280;8287;51.644;8.494;2023-02-18T01:14:03;100843.94;;;12.20;95.99
16355;BME280;8287;51.644;8.494;2023-02-18T01:16:29;100848.66;;;12.23;95.91
16355;BME280;8287;51.644;8.494;2023-02-18T01:18:56;100846.91;;;12.18;96.35
16355;BME280;8287;51.644;8.494;2023-02-18T01:21:23;100847.09;;;12.22;95.70
16355;BME280;8287;51.644;8.494;2023-02-18T01:23:50;100842.72;;;12.26;96.42
16355;BME280;8287;51.644;8.494;2023-02-18T01:26:18;100853.34;;;12.26;96.27
16355;BME280;8287;51.644;8.494;2023-02-18T01:28:45;100844.91;;;12.24;95.92
16355;BME280;8287;51.644;8.494;2023-02-18T01:31:13;100830.81;;;12.23;96.30
16355;BME280;8287;51.644;8.494;2023-02-18T01:33:41;100833.66;;;12.27;96.63
16355;BME280;8287;51.644;8.494;2023-02-18T01:36:08;100828.34;;;12.27;96.42
16355;BME280;8287;51.644;8.494;2023-02-18T01:38:36;100840.38;;;12.24;96.88
16355;BME280;8287;51.644;8.494;2023-02-18T01:41:03;100835.84;;;12.25;97.13
16355;BME280;8287;51.644;8.494;2023-02-18T01:43:31;100829.75;;;12.24;97.49
16355;BME280;8287;51.644;8.494;2023-02-18T01:46:04;100827.03;;;12.16;97.69
16355;BME280;8287;51.644;8.494;2023-02-18T01:48:35;100838.44;;;12.16;98.03
16355;BME280;8287;51.644;8.494;2023-02-18T01:51:07;100833.47;;;12.23;98.10
16355;BME280;8287;51.644;8.494;2023-02-18T01:53:39;100825.84;;;12.22;98.18
16355;BME280;8287;51.644;8.494;2023-02-18T01:56:13;100824.09;;;12.17;98.10
16355;BME280;8287;51.644;8.494;2023-02-18T01:58:52;100818.59;;;12.14;98.31
16355;BME280;8287;51.644;8.494;2023-02-18T02:01:20;100815.94;;;12.14;98.73
16355;BME280;8287;51.644;8.494;2023-02-18T02:03:47;100822.91;;;12.10;99.24
16355;BME280;8287;51.644;8.494;2023-02-18T02:06:16;100819.53;;;12.18;99.04
16355;BME280;8287;51.644;8.494;2023-02-18T02:08:44;100803.84;;;12.08;99.62
16355;BME280;8287;51.644;8.494;2023-02-18T02:11:22;100810.13;;;12.12;99.83
16355;BME280;8287;51.644;8.494;2023-02-18T02:14:07;100802.41;;;12.24;99.23
16355;BME280;8287;51.644;8.494;2023-02-18T02:16:41;100796.59;;;12.22;99.59
16355;BME280;8287;51.644;8.494;2023-02-18T02:22:34;100794.78;;;12.31;99.23
16355;BME280;8287;51.644;8.494;2023-02-18T02:25:29;100794.16;;;12.34;99.02
16355;BME280;8287;51.644;8.494;2023-02-18T02:31:24;100787.75;;;12.35;99.28
16355;BME280;8287;51.644;8.494;2023-02-18T02:34:23;100776.19;;;12.31;99.79
16355;BME280;8287;51.644;8.494;2023-02-18T02:37:00;100781.31;;;12.27;99.63
16355;BME280;8287;51.644;8.494;2023-02-18T02:39:35;100772.91;;;12.34;99.94
16355;BME280;8287;51.644;8.494;2023-02-18T02:42:10;100781.25;;;12.41;99.08
16355;BME280;8287;51.644;8.494;2023-02-18T02:44:46;100778.09;;;12.39;99.67
16355;BME280;8287;51.644;8.494;2023-02-18T02:47:20;100764.47;;;12.32;99.86
16355;BME280;8287;51.644;8.494;2023-02-18T02:49:57;100764.00;;;12.30;99.92
16355;BME280;8287;51.644;8.494;2023-02-18T02:52:30;100761.69;;;12.37;99.93
16355;BME280;8287;51.644;8.494;2023-02-18T02:54:58;100749.78;;;12.34;100.00
16355;BME280;8287;51.644;8.494;2023-02-18T02:57:46;100758.53;;;12.35;100.00
16355;BME280;8287;51.644;8.494;2023-02-18T03:00:16;100745.88;;;12.32;100.00
16355;BME280;8287;51.644;8.494;2023-02-18T03:02:58;100734.63;;;12.35;100.00
16355;BME280;8287;51.644;8.494;2023-02-18T03:05:38;100723.22;;;12.34;100.00
16355;BME280;8287;51.644;8.494;2023-02-18T03:08:24;100723.50;;;12.33;100.00
16355;BME280;8287;51.644;8.494;2023-02-18T03:11:01;100719.19;;;12.37;100.00
16355;BME280;8287;51.644;8.494;2023-02-18T03:13:50;100710.56;;;12.40;99.92
16355;BME280;8287;51.644;8.494;2023-02-18T03:16:25;100698.38;;;12.39;99.92
16355;BME280;8287;51.644;8.494;2023-02-18T03:18:58;100699.59;;;12.33;100.00
16355;BME280;8287;51.644;8.494;2023-02-18T03:21:28;100689.16;;;12.36;100.00
16355;BME280;8287;51.644;8.494;2023-02-18T03:24:07;100695.41;;;12.40;100.00
16355;BME280;8287;51.644;8.494;2023-02-18T03:26:40;100685.56;;;12.41;100.00
16355;BME280;8287;51.644;8.494;2023-02-18T03:29:13;100685.56;;;12.41;100.00
16355;BME280;8287;51.644;8.494;2023-02-18T03:31:42;100674.59;;;12.34;100.00
16355;BME280;8287;51.644;8.494;2023-02-18T03:34:12;100674.47;;;12.39;99.83
16355;BME280;8287;51.644;8.494;2023-02-18T03:36:41;100671.47;;;12.40;99.59
16355;BME280;8287;51.644;8.494;2023-02-18T03:39:14;100675.09;;;12.44;100.00
16355;BME280;8287;51.644;8.494;2023-02-18T03:41:42;100669.50;;;12.46;99.88
16355;BME280;8287;51.644;8.494;2023-02-18T03:44:11;100668.41;;;12.47;99.37
16355;BME280;8287;51.644;8.494;2023-02-18T03:46:39;100669.81;;;12.53;98.95
16355;BME280;8287;51.644;8.494;2023-02-18T03:49:11;100664.81;;;12.51;98.95
16355;BME280;8287;51.644;8.494;2023-02-18T03:51:39;100667.13;;;12.44;99.06
16355;BME280;8287;51.644;8.494;2023-02-18T03:54:06;100656.69;;;12.48;98.77
16355;BME280;8287;51.644;8.494;2023-02-18T03:56:35;100653.72;;;12.49;98.70
16355;BME280;8287;51.644;8.494;2023-02-18T03:59:02;100653.22;;;12.47;98.64
16355;BME280;8287;51.644;8.494;2023-02-18T04:01:29;100662.63;;;12.53;98.77
16355;BME280;8287;51.644;8.494;2023-02-18T04:03:56;100646.84;;;12.57;98.19
16355;BME280;8287;51.644;8.494;2023-02-18T04:06:23;100657.47;;;12.57;97.75
16355;BME280;8287;51.644;8.494;2023-02-18T04:08:50;100641.38;;;12.53;97.71
16355;BME280;8287;51.644;8.494;2023-02-18T04:11:17;100649.22;;;12.58;97.43
16355;BME280;8287;51.644;8.494;2023-02-18T04:13:46;100634.19;;;12.54;97.49
16355;BME280;8287;51.644;8.494;2023-02-18T04:16:13;100629.19;;;12.52;97.49
16355;BME280;8287;51.644;8.494;2023-02-18T04:18:40;100621.50;;;12.51;97.61
16355;BME280;8287;51.644;8.494;2023-02-18T04:21:06;100624.03;;;12.56;97.18
16355;BME280;8287;51.644;8.494;2023-02-18T04:23:33;100622.00;;;12.61;96.72
16355;BME280;8287;51.644;8.494;2023-02-18T04:26:00;100620.09;;;12.53;96.60
16355;BME280;8287;51.644;8.494;2023-02-18T04:28:26;100621.53;;;12.59;96.90
16355;BME280;8287;51.644;8.494;2023-02-18T04:30:54;100612.94;;;12.62;96.52
16355;BME280;8287;51.644;8.494;2023-02-18T04:33:21;100611.38;;;12.70;96.22
16355;BME280;8287;51.644;8.494;2023-02-18T04:35:48;100603.09;;;12.63;96.09
16355;BME280;8287;51.644;8.494;2023-02-18T04:38:15;100608.72;;;12.70;96.00
16355;BME280;8287;51.644;8.494;2023-02-18T04:40:42;100606.97;;;12.65;96.31
16355;BME280;8287;51.644;8.494;2023-02-18T04:43:08;100606.69;;;12.67;95.67
16355;BME280;8287;51.644;8.494;2023-02-18T04:45:35;100603.09;;;12.63;95.44
16355;BME280;8287;51.644;8.494;2023-02-18T04:48:04;100603.09;;;12.71;95.88
16355;BME280;8287;51.644;8.494;2023-02-18T04:50:31;100601.22;;;12.72;95.15
16355;BME280;8287;51.644;8.494;2023-02-18T04:52:58;100583.56;;;12.67;95.41
16355;BME280;8287;51.644;8.494;2023-02-18T04:55:24;100587.44;;;12.70;94.76
16355;BME280;8287;51.644;8.494;2023-02-18T04:57:51;100589.78;;;12.71;95.32
16355;BME280;8287;51.644;8.494;2023-02-18T05:00:18;100578.53;;;12.66;95.34
16355;BME280;8287;51.644;8.494;2023-02-18T05:02:46;100580.88;;;12.76;94.89
16355;BME280;8287;51.644;8.494;2023-02-18T05:05:14;100578.56;;;12.74;94.57
16355;BME280;8287;51.644;8.494;2023-02-18T05:07:41;100570.25;;;12.76;94.97
16355;BME280;8287;51.644;8.494;2023-02-18T05:10:09;100567.75;;;12.71;95.38
16355;BME280;8287;51.644;8.494;2023-02-18T05:12:37;100560.72;;;12.75;94.77
16355;BME280;8287;51.644;8.494;2023-02-18T05:15:05;100563.84;;;12.77;94.91
16355;BME280;8287;51.644;8.494;2023-02-18T05:17:32;100571.03;;;12.76;94.45
16355;BME280;8287;51.644;8.494;2023-02-18T05:19:59;100556.19;;;12.75;94.14
16355;BME280;8287;51.644;8.494;2023-02-18T05:22:27;100558.69;;;12.72;94.31
16355;BME280;8287;51.644;8.494;2023-02-18T05:24:54;100562.13;;;12.81;94.21
16355;BME280;8287;51.644;8.494;2023-02-18T05:27:20;100560.56;;;12.80;94.67
16355;BME280;8287;51.644;8.494;2023-02-18T05:29:47;100558.69;;;12.80;94.20
16355;BME280;8287;51.644;8.494;2023-02-18T05:32:14;100550.25;;;12.87;94.64
16355;BME280;8287;51.644;8.494;2023-02-18T05:34:40;100540.69;;;12.86;94.55
16355;BME280;8287;51.644;8.494;2023-02-18T05:37:08;100553.22;;;12.85;93.87
16355;BME280;8287;51.644;8.494;2023-02-18T05:39:36;100538.03;;;12.86;94.61
16355;BME280;8287;51.644;8.494;2023-02-18T05:42:02;100537.88;;;12.82;94.03
16355;BME280;8287;51.644;8.494;2023-02-18T05:44:29;100532.69;;;12.69;95.28
16355;BME280;8287;51.644;8.494;2023-02-18T05:46:55;100533.81;;;12.59;95.93
16355;BME280;8287;51.644;8.494;2023-02-18T05:49:22;100524.91;;;12.81;95.79
16355;BME280;8287;51.644;8.494;2023-02-18T05:51:48;100520.03;;;12.83;94.99
16355;BME280;8287;51.644;8.494;2023-02-18T05:54:15;100516.16;;;12.72;95.05
16355;BME280;8287;51.644;8.494;2023-02-18T05:56:43;100512.22;;;12.86;94.75
16355;BME280;8287;51.644;8.494;2023-02-18T05:59:10;100494.84;;;12.80;95.51
16355;BME280;8287;51.644;8.494;2023-02-18T06:01:37;100493.59;;;12.78;95.79
16355;BME280;8287;51.644;8.494;2023-02-18T06:04:04;100497.50;;;12.80;95.68
16355;BME280;8287;51.644;8.494;2023-02-18T06:06:30;100489.72;;;12.75;95.54
16355;BME280;8287;51.644;8.494;2023-02-18T06:08:57;100493.31;;;12.71;95.86
16355;BME280;8287;51.644;8.494;2023-02-18T06:11:24;100470.00;;;12.76;95.21
16355;BME280;8287;51.644;8.494;2023-02-18T06:13:52;100475.31;;;12.68;96.12
16355;BME280;8287;51.644;8.494;2023-02-18T06:16:19;100472.97;;;12.58;96.20
16355;BME280;8287;51.644;8.494;2023-02-18T06:18:45;100474.69;;;12.79;95.82
16355;BME280;8287;51.644;8.494;2023-02-18T06:21:12;100477.03;;;12.81;95.15
16355;BME280;8287;51.644;8.494;2023-02-18T06:23:38;100475.00;;;12.86;94.75
16355;BME280;8287;51.644;8.494;2023-02-18T06:26:05;100468.13;;;12.85;94.22
16355;BME280;8287;51.644;8.494;2023-02-18T06:28:32;100469.06;;;12.81;94.20
16355;BME280;8287;51.644;8.494;2023-02-18T06:31:00;100460.44;;;12.84;94.85
16355;BME280;8287;51.644;8.494;2023-02-18T06:33:27;100460.44;;;12.84;94.51
16355;BME280;8287;51.644;8.494;2023-02-18T06:35:57;100463.41;;;12.82;94.30
16355;BME280;8287;51.644;8.494;2023-02-18T06:38:24;100462.34;;;12.58;95.43
16355;BME280;8287;51.644;8.494;2023-02-18T06:40:51;100458.56;;;12.76;94.94
16355;BME280;8287;51.644;8.494;2023-02-18T06:43:18;100452.78;;;12.82;95.22
16355;BME280;8287;51.644;8.494;2023-02-18T06:45:45;100454.38;;;12.66;95.27
16355;BME280;8287;51.644;8.494;2023-02-18T06:48:13;100453.88;;;12.81;95.43
16355;BME280;8287;51.644;8.494;2023-02-18T06:50:41;100463.28;;;12.79;95.32
16355;BME280;8287;51.644;8.494;2023-02-18T06:53:08;100470.00;;;12.76;95.35
16355;BME280;8287;51.644;8.494;2023-02-18T06:55:34;100477.53;;;12.74;95.89
16355;BME280;8287;51.644;8.494;2023-02-18T06:58:01;100463.59;;;12.77;95.74
16355;BME280;8287;51.644;8.494;2023-02-18T07:00:28;100458.25;;;12.69;95.58
16355;BME280;8287;51.644;8.494;2023-02-18T07:02:55;100465.13;;;12.70;95.84
16355;BME280;8287;51.644;8.494;2023-02-18T07:05:23;100460.94;;;12.60;97.03
16355;BME280;8287;51.644;8.494;2023-02-18T07:07:50;100471.41;;;12.65;97.10
16355;BME280;8287;51.644;8.494;2023-02-18T07:10:17;100466.88;;;12.57;97.78
16355;BME280;8287;51.644;8.494;2023-02-18T07:12:44;100460.78;;;12.40;97.76
16355;BME280;8287;51.644;8.494;2023-02-18T07:15:10;100462.19;;;12.54;98.28
16355;BME280;8287;51.644;8.494;2023-02-18T07:17:37;100473.13;;;12.53;98.12
16355;BME280;8287;51.644;8.494;2023-02-18T07:20:05;100461.56;;;12.57;97.80
16355;BME280;8287;51.644;8.494;2023-02-18T07:22:34;100470.78;;;12.60;97.84
16355;BME280;8287;51.644;8.494;2023-02-18T07:25:01;100452.34;;;12.55;97.95
16355;BME280;8287;51.644;8.494;2023-02-18T07:27:27;100460.16;;;12.51;98.71
16355;BME280;8287;51.644;8.494;2023-02-18T07:29:54;100459.69;;;12.49;98.52
16355;BME280;8287;51.644;8.494;2023-02-18T07:32:21;100461.41;;;12.54;98.80
16355;BME280;8287;51.644;8.494;2023-02-18T07:34:50;100460.47;;;12.50;99.12
16355;BME280;8287;51.644;8.494;2023-02-18T07:37:16;100458.75;;;12.45;99.09
16355;BME280;8287;51.644;8.494;2023-02-18T07:39:45;100452.34;;;12.46;98.82
16355;BME280;8287;51.644;8.494;2023-02-18T07:42:12;100460.78;;;12.48;98.61
16355;BME280;8287;51.644;8.494;2023-02-18T07:44:39;100456.25;;;12.49;99.07
16355;BME280;8287;51.644;8.494;2023-02-18T07:47:08;100450.78;;;12.54;98.62
16355;BME280;8287;51.644;8.494;2023-02-18T07:49:36;100458.75;;;12.54;98.30
16355;BME280;8287;51.644;8.494;2023-02-18T07:52:03;100459.22;;;12.56;98.86
16355;BME280;8287;51.644;8.494;2023-02-18T07:54:29;100450.31;;;12.52;98.84
16355;BME280;8287;51.644;8.494;2023-02-18T07:56:57;100458.28;;;12.52;99.04
16355;BME280;8287;51.644;8.494;2023-02-18T07:59:24;100453.75;;;12.35;99.53
16355;BME280;8287;51.644;8.494;2023-02-18T08:01:51;100461.09;;;12.38;99.52
16355;BME280;8287;51.644;8.494;2023-02-18T08:04:18;100462.34;;;12.41;99.69
16355;BME280;8287;51.644;8.494;2023-02-18T08:06:46;100455.47;;;12.40;99.92
16355;BME280;8287;51.644;8.494;2023-02-18T08:09:15;100459.06;;;12.35;100.00
16355;BME280;8287;51.644;8.494;2023-02-18T08:11:43;100453.13;;;12.38;100.00
16355;BME280;8287;51.644;8.494;2023-02-18T08:14:11;100472.66;;;12.34;100.00
16355;BME280;8287;51.644;8.494;2023-02-18T08:16:38;100469.69;;;12.35;100.00
16355;BME280;8287;51.644;8.494;2023-02-18T08:19:06;100481.41;;;12.34;100.00
16355;BME280;8287;51.644;8.494;2023-02-18T08:21:33;100470.16;;;12.29;100.00
16355;BME280;8287;51.644;8.494;2023-02-18T08:24:00;100476.56;;;12.36;100.00
16355;BME280;8287;51.644;8.494;2023-02-18T08:26:27;100471.88;;;12.25;100.00
16355;BME280;8287;51.644;8.494;2023-02-18T08:28:54;100485.16;;;12.42;100.00
16355;BME280;8287;51.644;8.494;2023-02-18T08:31:24;100474.53;;;12.42;100.00
16355;BME280;8287;51.644;8.494;2023-02-18T08:33:52;100481.09;;;12.36;100.00
16355;BME280;8287;51.644;8.494;2023-02-18T08:36:19;100478.44;;;12.36;99.94
16355;BME280;8287;51.644;8.494;2023-02-18T08:38:46;100474.06;;;12.23;100.00
16355;BME280;8287;51.644;8.494;2023-02-18T08:41:13;100464.06;;;12.20;100.00
16355;BME280;8287;51.644;8.494;2023-02-18T08:43:40;100470.16;;;12.12;100.00
16355;BME280;8287;51.644;8.494;2023-02-18T08:46:07;100442.78;;;12.03;100.00
16355;BME280;8287;51.644;8.494;2023-02-18T08:48:35;100458.72;;;12.11;100.00
16355;BME280;8287;51.644;8.494;2023-02-18T08:51:10;100471.53;;;12.09;100.00
16355;BME280;8287;51.644;8.494;2023-02-18T08:53:37;100470.28;;;12.07;100.00
16355;BME280;8287;51.644;8.494;2023-02-18T08:56:08;100464.03;;;12.03;100.00
16355;BME280;8287;51.644;8.494;2023-02-18T08:58:35;100469.34;;;12.03;100.00
16355;BME280;8287;51.644;8.494;2023-02-18T09:01:03;100461.69;;;12.01;100.00
16355;BME280;8287;51.644;8.494;2023-02-18T09:03:30;100462.78;;;12.09;100.00
16355;BME280;8287;51.644;8.494;2023-02-18T09:05:59;100453.53;;;12.06;100.00
16355;BME280;8287;51.644;8.494;2023-02-18T09:08:26;100458.72;;;12.11;100.00
16355;BME280;8287;51.644;8.494;2023-02-18T09:10:54;100460.28;;;12.04;99.97
16355;BME280;8287;51.644;8.494;2023-02-18T09:13:23;100461.06;;;12.04;99.22
16355;BME280;8287;51.644;8.494;2023-02-18T09:20:04;100450.91;;;12.15;98.59
16355;BME280;8287;51.644;8.494;2023-02-18T09:23:23;100445.31;;;12.16;97.91
16355;BME280;8287;51.644;8.494;2023-02-18T09:26:41;100444.69;;;12.19;97.58
16355;BME280;8287;51.644;8.494;2023-02-18T09:29:08;100442.47;;;12.21;96.82
16355;BME280;8287;51.644;8.494;2023-02-18T09:31:35;100440.78;;;12.25;96.54
16355;BME280;8287;51.644;8.494;2023-02-18T09:34:02;100432.00;;;12.25;95.75
16355;BME280;8287;51.644;8.494;2023-02-18T09:36:29;100423.91;;;12.30;95.51
16355;BME280;8287;51.644;8.494;2023-02-18T09:38:57;100415.44;;;12.28;94.38
16355;BME280;8287;51.644;8.494;2023-02-18T09:41:33;100429.19;;;12.38;93.92
16355;BME280;8287;51.644;8.494;2023-02-18T09:44:05;100434.50;;;12.38;93.54
16355;BME280;8287;51.644;8.494;2023-02-18T09:46:38;100428.25;;;12.43;93.69
16355;BME280;8287;51.644;8.494;2023-02-18T09:49:13;100422.97;;;12.51;92.23
16355;BME280;8287;51.644;8.494;2023-02-18T09:51:41;100441.41;;;12.48;91.40
16355;BME280;8287;51.644;8.494;2023-02-18T09:54:10;100425.47;;;12.48;89.66
16355;BME280;8287;51.644;8.494;2023-02-18T09:56:38;100430.59;;;12.53;90.20
16355;BME280;8287;51.644;8.494;2023-02-18T09:59:11;100431.53;;;12.48;89.63
16355;BME280;8287;51.644;8.494;2023-02-18T10:01:40;100431.69;;;12.52;90.44
16355;BME280;8287;51.644;8.494;2023-02-18T10:04:12;100423.72;;;12.52;90.42
16355;BME280;8287;51.644;8.494;2023-02-18T10:06:42;100431.69;;;12.52;88.58
16355;BME280;8287;51.644;8.494;2023-02-18T10:09:15;100429.81;;;12.44;88.81
16355;BME280;8287;51.644;8.494;2023-02-18T10:11:47;100439.53;;;12.40;88.56
16355;BME280;8287;51.644;8.494;2023-02-18T10:14:15;100439.84;;;12.30;88.20
16355;BME280;8287;51.644;8.494;2023-02-18T10:16:42;100430.91;;;12.26;87.51
16355;BME280;8287;51.644;8.494;2023-02-18T10:19:19;100423.56;;;12.14;88.40
16355;BME280;8287;51.644;8.494;2023-02-18T10:21:47;100415.94;;;12.13;88.36
16355;BME280;8287;51.644;8.494;2023-02-18T10:24:24;100434.53;;;12.13;89.31
16355;BME280;8287;51.644;8.494;2023-02-18T10:26:52;100440.16;;;12.20;88.95
16355;BME280;8287;51.644;8.494;2023-02-18T10:29:20;100436.69;;;12.11;87.81
16355;BME280;8287;51.644;8.494;2023-02-18T10:31:52;100443.25;;;12.05;88.34
16355;BME280;8287;51.644;8.494;2023-02-18T10:34:28;100451.34;;;12.00;88.96
16355;BME280;8287;51.644;8.494;2023-02-18T10:37:00;100431.34;;;11.94;89.62
16355;BME280;8287;51.644;8.494;2023-02-18T10:39:47;100452.47;;;11.99;90.07
16355;BME280;8287;51.644;8.494;2023-02-18T10:42:28;100448.53;;;11.96;90.19
16355;BME280;8287;51.644;8.494;2023-02-18T10:45:05;100450.09;;;11.97;91.05
16355;BME280;8287;51.644;8.494;2023-02-18T10:47:38;100444.03;;;11.97;90.59
16355;BME280;8287;51.644;8.494;2023-02-18T10:50:10;100445.28;;;11.99;90.32
16355;BME280;8287;51.644;8.494;2023-02-18T10:52:41;100455.75;;;11.96;90.70
16355;BME280;8287;51.644;8.494;2023-02-18T10:55:10;100442.28;;;11.92;90.95
16355;BME280;8287;51.644;8.494;2023-02-18T10:57:45;100467.13;;;11.88;90.91
16355;BME280;8287;51.644;8.494;2023-02-18T11:00:18;100464.13;;;11.81;91.79
16355;BME280;8287;51.644;8.494;2023-02-18T11:03:02;100472.22;;;11.76;92.51
16355;BME280;8287;51.644;8.494;2023-02-18T11:05:29;100467.50;;;11.64;93.80
16355;BME280;8287;51.644;8.494;2023-02-18T11:08:00;100467.19;;;11.57;94.63
16355;BME280;8287;51.644;8.494;2023-02-18T11:10:31;100483.19;;;11.52;95.82
16355;BME280;8287;51.644;8.494;2023-02-18T11:13:00;100481.47;;;11.48;95.50
16355;BME280;8287;51.644;8.494;2023-02-18T11:15:28;100475.88;;;11.49;95.48
16355;BME280;8287;51.644;8.494;2023-02-18T11:17:56;100454.19;;;11.56;95.68
16355;BME280;8287;51.644;8.494;2023-02-18T11:20:27;100476.38;;;11.60;95.11
16355;BME280;8287;51.644;8.494;2023-02-18T11:23:15;100471.19;;;11.55;95.21
16355;BME280;8287;51.644;8.494;2023-02-18T11:25:54;100470.00;;;11.61;95.67
16355;BME280;8287;51.644;8.494;2023-02-18T11:28:27;100459.41;;;11.61;94.95
16355;BME280;8287;51.644;8.494;2023-02-18T11:30:57;100456.75;;;11.61;95.19
16355;BME280;8287;51.644;8.494;2023-02-18T11:33:31;100455.09;;;11.51;95.00
16355;BME280;8287;51.644;8.494;2023-02-18T11:36:04;100443.09;;;11.54;95.16
16355;BME280;8287;51.644;8.494;2023-02-18T11:38:35;100457.59;;;11.56;95.25
16355;BME280;8287;51.644;8.494;2023-02-18T11:41:06;100453.59;;;11.59;95.80
16355;BME280;8287;51.644;8.494;2023-02-18T11:43:34;100465.28;;;11.58;95.44
16355;BME280;8287;51.644;8.494;2023-02-18T11:46:08;100458.06;;;11.50;95.89
16355;BME280;8287;51.644;8.494;2023-02-18T11:48:35;100461.06;;;11.57;96.68
16355;BME280;8287;51.644;8.494;2023-02-18T11:51:02;100471.97;;;11.55;97.10
16355;BME280;8287;51.644;8.494;2023-02-18T11:53:31;100461.88;;;11.57;96.30
16355;BME280;8287;51.644;8.494;2023-02-18T11:56:00;100454.38;;;11.59;96.89
16355;BME280;8287;51.644;8.494;2023-02-18T11:58:36;100466.97;;;11.54;96.75
16355;BME280;8287;51.644;8.494;2023-02-18T12:01:05;100472.41;;;11.49;97.14
16355;BME280;8287;51.644;8.494;2023-02-18T12:03:41;100457.13;;;11.46;96.66
16355;BME280;8287;51.644;8.494;2023-02-18T12:06:12;100470.38;;;11.46;97.60
16355;BME280;8287;51.644;8.494;2023-02-18T12:08:46;100459.78;;;11.46;97.65
16355;BME280;8287;51.644;8.494;2023-02-18T12:11:20;100456.31;;;11.45;97.62
16355;BME280;8287;51.644;8.494;2023-02-18T12:13:52;100464.16;;;11.50;97.97
16355;BME280;8287;51.644;8.494;2023-02-18T12:16:27;100474.72;;;11.42;97.49
16355;BME280;8287;51.644;8.494;2023-02-18T12:19:07;100457.53;;;11.39;97.94
16355;BME280;8287;51.644;8.494;2023-02-18T12:21:45;100460.69;;;11.41;98.51
16355;BME280;8287;51.644;8.494;2023-02-18T12:24:24;100468.81;;;11.45;98.30
16355;BME280;8287;51.644;8.494;2023-02-18T12:27:04;100457.88;;;11.46;98.34
16355;BME280;8287;51.644;8.494;2023-02-18T12:29:54;100461.63;;;11.45;97.86
16355;BME280;8287;51.644;8.494;2023-02-18T12:32:38;100467.09;;;11.49;98.16
16355;BME280;8287;51.644;8.494;2023-02-18T12:35:21;100467.72;;;11.46;98.30
16355;BME280;8287;51.644;8.494;2023-02-18T12:38:03;100475.81;;;11.41;98.18
16355;BME280;8287;51.644;8.494;2023-02-18T12:40:45;100464.72;;;11.39;98.67
16355;BME280;8287;51.644;8.494;2023-02-18T12:43:21;100461.09;;;11.35;99.67
16355;BME280;8287;51.644;8.494;2023-02-18T12:46:07;100467.50;;;11.34;99.30
16355;BME280;8287;51.644;8.494;2023-02-18T12:48:54;100457.84;;;11.38;99.52
16355;BME280;8287;51.644;8.494;2023-02-18T12:51:29;100457.97;;;11.33;99.34
16355;BME280;8287;51.644;8.494;2023-02-18T12:54:17;100464.09;;;11.33;99.88
16355;BME280;8287;51.644;8.494;2023-02-18T12:57:19;100467.56;;;11.42;99.90
16355;BME280;8287;51.644;8.494;2023-02-18T13:03:26;100461.09;;;11.35;100.00
16355;BME280;8287;51.644;8.494;2023-02-18T13:06:03;100475.47;;;11.34;100.00
16355;BME280;8287;51.644;8.494;2023-02-18T13:08:42;100460.97;;;11.40;100.00
16355;BME280;8287;51.644;8.494;2023-02-18T13:11:18;100474.41;;;11.43;100.00
16355;BME280;8287;51.644;8.494;2023-02-18T13:13:54;100470.84;;;11.48;100.00
16355;BME280;8287;51.644;8.494;2023-02-18T13:16:22;100474.41;;;11.43;100.00
16355;BME280;8287;51.644;8.494;2023-02-18T13:18:57;100479.72;;;11.43;100.00
16355;BME280;8287;51.644;8.494;2023-02-18T13:21:26;100470.22;;;11.42;100.00
16355;BME280;8287;51.644;8.494;2023-02-18T13:23:55;100474.88;;;11.37;100.00
16355;BME280;8287;51.644;8.494;2023-02-18T13:26:24;100470.50;;;11.41;100.00
16355;BME280;8287;51.644;8.494;2023-02-18T13:28:57;100476.28;;;11.43;100.00